Latest Weather Observations for Port Macquarie Airport

IDN60801

Issued at 8:32 pm EDT Monday 17 December 2018 (issued every 10 minutes, with the page automatically refreshed every 10 minutes)

About weather observations | Map of weather stations | Latest weather observations for NSW | Other Formats
Station Details ID: 060139 Name: PORT MACQUARIE AIRPORT AWS Lat: -31.43 Lon: 152.87 Height: 4.2 m
Data from the previous 72 hours. | See also: Recent months at Port Macquarie Airport
Date/Time
EDT
Temp
°C
App
Temp
°C
Dew
Point
°C
Rel
Hum
%
Delta-T
°C
Wind Press
QNH
hPa
Press
MSL
hPa
Rain since
9am
mm
Dir  Spd
km/h
Gust
km/h
Spd
kts
Gust
kts
17/08:30pm 23.0 22.9 20.7 87 1.5 NNE 22 33 12 18 1011.7 1011.7 0.0
17/08:17pm 23.3 23.6 20.8 86 1.6 NNE 20 33 11 18 1011.5 1011.5 0.0
17/08:00pm 23.4 23.2 20.5 84 1.9 NNE 22 32 12 17 1011.0 1011.0 0.0
17/07:30pm 23.5 23.1 20.2 82 2.1 NNE 22 32 12 17 1010.7 1010.7 0.0
17/07:00pm 23.6 23.0 20.5 83 2.0 NNE 24 33 13 18 1010.5 1010.5 0.0
17/06:30pm 23.8 23.4 20.1 80 2.4 NE 22 32 12 17 1010.0 1010.0 0.0
17/06:00pm 23.9 24.0 20.0 79 2.5 NNE 19 28 10 15 1010.1 1010.1 0.0
17/05:30pm 24.6 24.9 20.5 78 2.7 NNE 19 32 10 17 1009.8 1009.8 0.0
17/05:00pm 25.8 24.9 20.6 73 3.4 NE 26 35 14 19 1009.4 1009.4 0.0
17/04:30pm 25.9 25.1 20.9 74 3.3 NNE 26 39 14 21 1009.3 1009.3 0.0
17/04:00pm 25.7 23.6 20.5 73 3.4 NE 32 46 17 25 1009.2 1009.2 0.0
17/03:30pm 25.7 23.4 20.5 73 3.4 NNE 33 48 18 26 1009.5 1009.5 0.0
17/03:00pm 26.0 23.6 21.0 74 3.3 NE 35 46 19 25 1009.4 1009.4 0.0
17/02:30pm 27.2 26.6 21.9 73 3.6 NE 28 43 15 23 1009.4 1009.4 0.0
17/02:00pm 27.1 27.0 21.4 71 3.8 NE 24 39 13 21 1009.4 1009.4 0.0
17/01:30pm 26.3 24.9 21.9 77 2.9 ENE 32 39 17 21 1009.6 1009.6 0.0
17/01:00pm 26.1 25.3 21.7 77 2.9 ENE 28 37 15 20 1009.7 1009.7 0.0
17/12:30pm 26.4 26.0 21.6 75 3.2 NE 26 35 14 19 1009.9 1009.9 0.0
17/12:00pm 26.3 26.1 20.6 71 3.7 NE 22 30 12 16 1010.1 1010.1 0.0
17/11:30am 26.5 26.8 20.8 71 3.8 NE 20 30 11 16 1010.3 1010.3 0.0
17/11:00am 26.3 26.7 20.6 71 3.7 NE 19 26 10 14 1010.4 1010.4 0.0
17/10:30am 25.7 26.0 20.3 72 3.5 NE 19 26 10 14 1010.7 1010.7 0.0
17/10:00am 26.2 25.3 19.1 65 4.6 NNE 22 30 12 16 1010.7 1010.7 0.0
17/09:30am 25.8 25.6 19.7 69 3.9 N 20 28 11 15 1010.7 1010.7 0.0
17/09:00am 25.0 25.0 19.8 73 3.4 N 19 24 10 13 1010.7 1010.7 21.0
17/08:30am 23.6 24.0 19.9 80 2.4 N 17 20 9 11 1010.7 1010.7 21.0
17/08:00am 22.2 23.3 19.7 86 1.6 N 13 17 7 9 1010.7 1010.7 21.0
17/07:30am 20.9 20.9 19.0 89 1.2 N 17 20 9 11 1010.4 1010.4 21.0
17/07:00am 20.7 21.6 19.2 91 0.9 NNE 13 17 7 9 1010.3 1010.3 21.0
17/06:30am 19.7 20.7 18.7 94 0.6 NNE 11 13 6 7 1010.0 1010.0 21.0
17/06:00am 19.2 20.1 18.5 96 0.4 N 11 13 6 7 1010.0 1010.0 21.0
17/05:30am 19.2 19.8 18.5 96 0.4 NNE 13 15 7 8 1009.9 1009.9 21.0
17/05:00am 19.5 20.1 18.7 95 0.5 NNE 13 15 7 8 1009.6 1009.6 21.0
17/04:30am 19.6 21.1 18.9 96 0.4 NNE 9 13 5 7 1009.4 1009.4 21.0
17/04:00am 19.6 21.1 18.8 95 0.5 N 9 11 5 6 1009.3 1009.3 21.0
17/03:30am 20.2 20.7 19.2 94 0.6 N 15 20 8 11 1009.4 1009.4 21.0
17/03:00am 20.3 20.8 19.3 94 0.6 N 15 19 8 10 1009.3 1009.3 21.0
17/02:30am 20.5 21.6 19.7 95 0.5 N 13 17 7 9 1009.6 1009.6 21.0
17/02:00am 20.6 20.9 19.6 94 0.6 N 17 24 9 13 1009.9 1009.9 21.0
17/01:30am 20.4 20.7 19.7 96 0.4 N 17 24 9 13 1010.2 1010.2 21.0
17/01:00am 20.2 20.8 19.5 96 0.4 N 15 20 8 11 1010.6 1010.6 21.0
17/12:44am 20.1 20.3 19.4 96 0.4 N 17 24 9 13 1010.9 1010.9 21.0
17/12:30am 20.1 19.7 19.4 96 0.4 N 20 28 11 15 1010.9 1010.9 21.0
17/12:25am 20.1 19.9 19.3 95 0.5 N 19 26 10 14 1011.0 1011.0 21.0
17/12:21am 20.1 19.9 19.4 96 0.4 N 19 26 10 14 1011.1 1011.1 21.0
17/12:00am 20.3 21.1 19.8 97 0.3 N 15 20 8 11 1011.6 1011.6 21.0
 
Date/Time
EDT
Temp
°C
App
Temp
°C
Dew
Point
°C
Rel
Hum
%
Delta-T
°C
Wind Press
QNH
hPa
Press
MSL
hPa
Rain since
9am
mm
Dir  Spd
km/h
Gust
km/h
Spd
kts
Gust
kts
16/11:30pm 20.3 21.5 19.8 97 0.3 NNW 13 20 7 11 1012.0 1012.0 21.0
16/11:00pm 20.2 21.6 19.5 96 0.4 NNW 11 17 6 9 1012.2 1012.2 20.8
16/10:49pm 20.3 21.3 19.5 95 0.5 N 13 19 7 10 1011.8 1011.8 20.8
16/10:30pm 20.2 20.0 19.4 95 0.5 NNE 19 26 10 14 1011.8 1011.8 20.8
16/10:00pm 20.8 19.2 20.0 95 0.5 NNE 28 39 15 21 1011.7 1011.7 19.8
16/09:30pm 21.2 21.7 20.9 98 0.2 NE 19 26 10 14 1011.9 1011.9 19.2
16/09:00pm 21.0 20.8 20.5 97 0.3 NE 22 33 12 18 1012.1 1012.1 17.4
16/08:30pm 21.1 21.9 20.6 97 0.3 NE 17 24 9 13 1012.3 1012.3 13.8
16/08:00pm 21.1 22.2 20.4 96 0.5 NNE 15 22 8 12 1012.2 1012.2 10.8
16/07:33pm 21.4 21.6 20.6 95 0.5 NNE 20 26 11 14 1011.8 1011.8 8.8
16/07:30pm 21.5 21.8 20.7 95 0.5 NNE 20 28 11 15 1011.8 1011.8 8.8
16/07:00pm 22.2 22.8 21.4 95 0.5 NNE 20 30 11 16 1011.2 1011.2 7.4
16/06:30pm 22.4 22.0 21.6 95 0.5 NNE 26 41 14 22 1010.5 1010.5 7.0
16/06:00pm 22.4 21.6 21.7 96 0.5 NNE 28 43 15 23 1010.1 1010.1 7.0
16/05:30pm 22.5 21.4 21.8 96 0.5 NNE 30 41 16 22 1009.7 1009.7 6.8
16/05:00pm 22.6 21.6 21.9 96 0.5 NNE 30 43 16 23 1009.3 1009.3 6.4
16/04:49pm 22.7 21.7 22.0 96 0.5 NE 30 48 16 26 1009.0 1009.0 6.0
16/04:30pm 22.7 22.5 22.0 96 0.5 NNE 26 35 14 19 1009.4 1009.4 5.6
16/04:00pm 23.0 22.6 22.3 96 0.5 NNE 28 43 15 23 1009.2 1009.2 5.4
16/03:30pm 22.7 22.9 22.0 96 0.5 NE 24 33 13 18 1009.4 1009.4 5.4
16/03:00pm 23.8 24.1 22.2 91 1.1 NE 24 39 13 21 1010.0 1010.0 5.2
16/02:30pm 23.3 23.7 22.5 95 0.5 NE 24 33 13 18 1010.3 1010.3 5.2
16/02:00pm 23.8 24.5 22.2 91 1.1 NE 22 35 12 19 1010.3 1010.3 5.2
16/01:30pm 22.7 22.9 22.0 96 0.5 NE 24 33 13 18 1010.5 1010.5 5.2
16/01:00pm 23.2 24.3 22.4 95 0.5 NE 20 33 11 18 1010.8 1010.8 5.2
16/12:46pm 23.2 23.9 22.2 94 0.7 NNE 22 32 12 17 1010.8 1010.8 5.2
16/12:30pm 23.1 24.5 22.6 97 0.3 NE 19 26 10 14 1010.8 1010.8 5.2
16/12:29pm 23.0 24.4 22.5 97 0.3 NE 19 28 10 15 1010.8 1010.8 5.2
16/12:12pm 22.8 24.0 22.5 98 0.2 NE 20 28 11 15 1011.1 1011.1 5.2
16/12:01pm 22.8 24.6 22.5 98 0.2 NE 17 24 9 13 1011.1 1011.1 5.0
16/12:00pm 22.8 24.9 22.5 98 0.2 NE 15 24 8 13 1011.2 1011.2 5.0
16/11:46am 22.3 24.5 21.8 97 0.3 NE 13 20 7 11 1011.0 1011.0 4.2
16/11:33am 22.3 21.2 21.1 93 0.8 NNE 28 39 15 21 1011.6 1011.6 1.4
16/11:30am 22.6 21.7 21.4 93 0.8 NNE 28 41 15 22 1011.7 1011.7 1.2
16/11:00am 24.4 24.5 21.9 86 1.7 NNE 24 33 13 18 1011.4 1011.4 0.2
16/10:30am 25.8 25.7 22.3 81 2.3 NNE 26 39 14 21 1011.2 1011.2 0.2
16/10:00am 24.0 25.3 22.6 92 0.9 NNE 20 28 11 15 1011.1 1011.1 0.2
16/09:30am 24.5 23.8 21.8 85 1.8 NNE 28 37 15 20 1011.1 1011.1 0.0
16/09:00am 24.6 24.2 21.7 84 1.9 NNE 26 37 14 20 1011.4 1011.4 0.0
16/08:30am 24.1 24.5 22.5 91 1.1 NNE 24 35 13 19 1011.3 1011.3 0.0
16/08:04am 23.7 23.7 21.6 88 1.4 N 24 35 13 19 1011.2 1011.2 0.0
16/08:00am 24.1 24.1 21.6 86 1.7 N 24 35 13 19 1011.1 1011.1 0.0
16/07:35am 24.4 25.2 21.3 83 2.0 N 19 30 10 16 1010.9 1010.9 0.0
16/07:30am 24.5 25.3 21.4 83 2.0 N 19 28 10 15 1010.9 1010.9 0.0
16/07:00am 23.9 24.6 21.6 87 1.5 NNE 20 28 11 15 1010.5 1010.5 0.0
16/06:30am 23.6 24.3 21.5 88 1.4 NNE 20 28 11 15 1010.0 1010.0 0.0
16/06:00am 23.3 23.2 21.4 89 1.3 NNE 24 33 13 18 1009.8 1009.8 0.0
16/05:30am 23.4 24.1 21.5 89 1.3 NNE 20 28 11 15 1009.3 1009.3 0.0
16/05:00am 23.4 25.4 21.5 89 1.3 N 13 17 7 9 1009.1 1009.1 0.0
16/04:30am 23.6 24.0 21.7 89 1.3 NNE 22 30 12 16 1008.7 1008.7 0.0
16/04:00am 23.5 24.4 21.6 89 1.3 NNE 19 28 10 15 1008.5 1008.5 0.0
16/03:30am 23.5 23.8 21.6 89 1.3 NNE 22 32 12 17 1008.0 1008.0 0.0
16/03:00am 23.6 23.2 21.7 89 1.3 NNE 26 43 14 23 1007.8 1007.8 0.0
16/02:30am 23.7 23.7 21.6 88 1.4 NNE 24 35 13 19 1007.9 1007.9 0.0
16/02:22am 23.7 23.3 21.6 88 1.4 NNE 26 35 14 19 1007.8 1007.8 0.0
16/02:09am 23.6 23.5 21.5 88 1.4 NNE 24 35 13 19 1007.9 1007.9 0.0
16/02:00am 23.7 23.3 21.6 88 1.4 NNE 26 35 14 19 1008.2 1008.2 0.0
16/01:39am 23.9 23.0 21.4 86 1.6 N 28 41 15 22 1008.5 1008.5 0.0
16/01:30am 24.1 22.8 21.4 85 1.8 N 30 41 16 22 1008.3 1008.3 0.0
16/01:00am 24.3 23.5 21.6 85 1.8 N 28 41 15 22 1008.7 1008.7 0.0
16/12:30am 23.7 23.2 21.4 87 1.5 NNE 26 41 14 22 1008.7 1008.7 0.0
16/12:00am 24.2 22.5 21.3 84 1.9 NNE 32 46 17 25 1008.7 1008.7 0.0
 
Date/Time
EDT
Temp
°C
App
Temp
°C
Dew
Point
°C
Rel
Hum
%
Delta-T
°C
Wind Press
QNH
hPa
Press
MSL
hPa
Rain since
9am
mm
Dir  Spd
km/h
Gust
km/h
Spd
kts
Gust
kts
15/11:33pm 24.1 23.3 21.6 86 1.7 NNE 28 46 15 25 1009.0 1009.0 0.0
15/11:30pm 24.2 23.4 21.7 86 1.7 NNE 28 39 15 21 1009.1 1009.1 0.0
15/11:00pm 24.8 22.3 21.7 83 2.1 NNE 37 61 20 33 1008.7 1008.7 0.0
15/10:57pm 24.7 23.2 21.8 84 1.9 NNE 32 52 17 28 1008.8 1008.8 0.0
15/10:30pm 24.5 24.2 21.8 85 1.8 NNE 26 37 14 20 1009.5 1009.5 0.0
15/10:00pm 24.0 23.2 21.7 87 1.5 NNE 28 37 15 20 1009.2 1009.2 0.0
15/09:33pm 24.1 23.0 21.8 87 1.5 NNE 30 48 16 26 1008.8 1008.8 0.0
15/09:30pm 24.1 22.6 21.8 87 1.5 NNE 32 48 17 26 1008.8 1008.8 0.0
15/09:00pm 24.4 22.8 21.9 86 1.7 NNE 33 54 18 29 1007.8 1007.8 0.0
15/08:55pm 24.5 23.0 22.0 86 1.7 NNE 33 52 18 28 1007.9 1007.9 0.0
15/08:52pm 24.6 23.1 22.1 86 1.7 NNE 33 52 18 28 1007.9 1007.9 0.0
15/08:30pm 24.5 23.6 22.2 87 1.5 NNE 30 43 16 23 1008.0 1008.0 0.0
15/08:16pm 24.4 24.0 22.3 88 1.4 NNE 28 46 15 25 1007.9 1007.9 0.0
15/08:00pm 24.5 23.4 22.4 88 1.4 NNE 32 46 17 25 1007.6 1007.6 0.0
15/07:44pm 24.5 23.4 22.4 88 1.4 NNE 32 50 17 27 1007.3 1007.3 0.0
15/07:30pm 24.7 23.4 22.4 87 1.5 NNE 33 48 18 26 1007.1 1007.1 0.0
15/07:00pm 24.8 24.1 22.5 87 1.5 NNE 30 46 16 25 1006.5 1006.5 0.0
15/06:52pm 24.8 24.5 22.5 87 1.5 NNE 28 46 15 25 1006.6 1006.6 0.0
15/06:30pm 24.7 23.6 22.4 87 1.5 NNE 32 44 17 24 1006.5 1006.5 0.0
15/06:00pm 24.8 23.0 22.3 86 1.7 NNE 35 48 19 26 1006.1 1006.1 0.0
15/05:30pm 25.0 23.1 22.1 84 1.9 NNE 35 54 19 29 1005.1 1005.1 0.0
15/05:02pm 25.4 23.4 22.5 84 1.9 NNE 37 57 20 31 1004.6 1004.6 0.0
15/05:00pm 25.4 23.3 22.3 83 2.1 NNE 37 57 20 31 1004.6 1004.6 0.0
15/04:30pm 25.8 22.5 22.3 81 2.3 NNE 43 65 23 35 1004.8 1004.8 0.0
15/04:02pm 27.0 25.4 22.6 77 3.0 NNE 35 54 19 29 1004.6 1004.6 0.0
15/04:00pm 27.5 25.7 22.9 76 3.1 NNE 37 54 20 29 1004.8 1004.8 0.0
15/03:30pm 27.2 25.7 22.8 77 3.0 NE 35 54 19 29 1005.4 1005.4 0.0
15/03:00pm 27.6 26.7 23.2 77 3.0 NNE 33 54 18 29 1006.0 1006.0 0.0
15/02:44pm 27.6 25.9 22.5 74 3.4 NNE 35 54 19 29 1005.9 1005.9 0.0
15/02:30pm 27.6 26.1 22.8 75 3.3 NNE 35 61 19 33 1006.1 1006.1 0.0
15/02:00pm 27.1 26.6 22.9 78 2.9 NE 30 48 16 26 1006.5 1006.5 0.0
15/01:38pm 27.2 27.3 23.2 79 2.7 NE 28 46 15 25 1006.9 1006.9 0.0
15/01:30pm 26.3 24.6 22.4 79 2.6 NNE 35 50 19 27 1006.9 1006.9 0.0
15/01:00pm 28.5 26.7 23.0 72 3.8 NE 37 54 20 29 1007.3 1007.3 0.0
15/12:47pm 28.4 26.7 23.1 73 3.6 NNE 37 56 20 30 1007.5 1007.5 0.0
15/12:30pm 27.9 25.5 22.6 73 3.6 NNE 39 52 21 28 1007.6 1007.6 0.0
15/12:09pm 27.8 26.3 22.7 74 3.5 NNE 35 56 19 30 1007.8 1007.8 0.0
15/12:00pm 27.6 25.9 22.5 74 3.5 NNE 35 46 19 25 1007.8 1007.8 0.0
15/11:30am 28.2 27.6 22.7 72 3.7 NE 30 41 16 22 1007.8 1007.8 0.0
15/11:00am 28.7 29.0 22.9 71 4.0 NNE 26 35 14 19 1007.9 1007.9 0.0
15/10:30am 27.7 27.6 22.9 75 3.3 NE 28 41 15 22 1007.8 1007.8 0.0
15/10:00am 28.2 28.4 22.7 72 3.7 NNE 26 41 14 22 1007.8 1007.8 0.0
15/09:30am 27.5 26.9 22.0 72 3.7 NNE 28 39 15 21 1007.8 1007.8 0.0
15/09:00am 27.7 29.1 22.9 75 3.3 NNE 20 28 11 15 1007.8 1007.8 0.0
15/08:30am 27.2 27.9 23.0 78 2.9 NNE 24 33 13 18 1007.8 1007.8 0.0
15/08:18am 27.0 28.0 22.8 78 2.8 NNE 22 30 12 16 1007.9 1007.9 0.0
15/08:00am 26.2 28.3 23.1 83 2.1 N 17 24 9 13 1007.8 1007.8 0.0
15/07:55am 25.9 27.6 23.0 84 2.0 N 19 24 10 13 1007.7 1007.7 0.0
15/07:52am 25.8 27.5 23.1 85 1.8 N 19 24 10 13 1007.7 1007.7 0.0
15/07:30am 24.8 26.7 22.7 88 1.4 NNE 17 24 9 13 1007.7 1007.7 0.0
15/07:00am 24.5 25.9 22.8 90 1.1 NNE 20 30 11 16 1007.2 1007.2 0.0
15/06:30am 24.3 25.6 22.7 91 1.1 NNE 20 28 11 15 1006.7 1006.7 0.0
15/06:00am 23.9 25.3 22.5 92 0.9 NNE 19 26 10 14 1006.5 1006.5 0.0
15/05:52am 23.9 25.1 22.5 92 0.9 NNE 20 30 11 16 1006.5 1006.5 0.0
15/05:47am 23.9 25.1 22.5 92 0.9 NNE 20 30 11 16 1006.4 1006.4 0.0
15/05:30am 23.9 25.1 22.5 92 0.9 NNE 20 28 11 15 1005.9 1005.9 0.0
15/05:00am 23.8 24.2 22.4 92 0.9 NNE 24 33 13 18 1005.6 1005.6 0.0
15/04:43am 23.6 25.7 22.4 93 0.8 NNE 15 24 8 13 1005.7 1005.7 0.0
15/04:30am 23.6 24.8 22.2 92 0.9 NNE 19 30 10 16 1005.3 1005.3 0.0
15/04:00am 23.8 25.4 22.2 91 1.1 NNE 17 24 9 13 1005.4 1005.4 0.0
15/03:30am 23.8 24.8 22.2 91 1.1 NNE 20 32 11 17 1005.4 1005.4 0.0
15/03:00am 24.0 25.1 22.3 90 1.1 NNE 20 30 11 16 1005.1 1005.1 0.0
15/02:30am 23.9 25.0 22.0 89 1.3 NE 19 28 10 15 1005.2 1005.2 0.0
15/02:00am 24.3 25.5 22.2 88 1.4 NNE 19 26 10 14 1005.6 1005.6 0.0
15/01:30am 24.2 25.5 22.3 89 1.3 NNE 19 28 10 15 1005.7 1005.7 0.0
15/01:00am 24.0 25.0 22.1 89 1.3 NNE 20 30 11 16 1005.8 1005.8 0.0
15/12:30am 24.2 24.8 22.1 88 1.4 NNE 22 33 12 18 1005.7 1005.7 0.0
15/12:08am 24.3 23.1 22.2 88 1.4 NNE 32 43 17 23 1005.8 1005.8 0.0
15/12:00am 24.3 23.1 22.2 88 1.4 NNE 32 46 17 25 1005.9 1005.9 0.0
 
Date/Time
EDT
Temp
°C
App
Temp
°C
Dew
Point
°C
Rel
Hum
%
Delta-T
°C
Wind Press
QNH
hPa
Press
MSL
hPa
Rain since
9am
mm
Dir  Spd
km/h
Gust
km/h
Spd
kts
Gust
kts
14/11:30pm 24.4 24.1 22.5 89 1.3 NNE 28 41 15 22 1006.0 1006.0 0.0
14/11:00pm 24.5 24.2 22.6 89 1.3 NNE 28 46 15 25 1006.0 1006.0 0.0
14/10:54pm 24.5 24.2 22.6 89 1.3 NNE 28 46 15 25 1006.0 1006.0 0.0
14/10:30pm 24.5 24.9 22.4 88 1.4 NNE 24 39 13 21 1006.3 1006.3 0.0
14/10:00pm 24.5 24.2 22.6 89 1.3 NNE 28 41 15 22 1006.3 1006.3 0.0
14/09:30pm 24.6 24.4 22.7 89 1.3 NNE 28 41 15 22 1005.8 1005.8 0.0
14/09:28pm 24.6 24.4 22.7 89 1.3 NNE 28 41 15 22 1005.8 1005.8 0.0
14/09:16pm 24.6 23.3 22.5 88 1.4 NNE 33 48 18 26 1005.5 1005.5 0.0
14/09:00pm 24.6 23.5 22.5 88 1.4 NNE 32 48 17 26 1005.2 1005.2 0.0

Other Formats:

Comma delimited format used in spreadsheet applications
http://www.bom.gov.au/fwo/IDN60801/IDN60801.94786.axf

JavaScript Object Notation format (JSON) in row-major order
http://www.bom.gov.au/fwo/IDN60801/IDN60801.94786.json